EW0674 Weather Reports


Display with metric or nautical units.
time (UTC)temp
F
wind
direction
speed
MPH
gust
MPH
rain 1hr
in
rain 24hr
in
rain mn
in
humidity
%
barometer
mb
20210615073022 59 191 0.0 2.0 0.00 0.00 0.00 56 1013.0
20210615071524 59 194 0.0 0.0 0.00 0.00 0.00 54 1012.9
20210615070033 59 190 0.0 0.0 0.00 0.00 0.00 54 1012.7
20210615064539 60 185 1.0 5.0 0.00 0.00 0.00 55 1012.7
20210615063012 60 207 0.0 6.0 0.00 0.00 0.00 53 1012.6
20210615061533 60 178 2.0 7.0 0.00 0.00 0.00 55 1012.7
20210615060024 61 221 1.0 8.0 0.00 0.00 0.00 56 1012.7
20210615054538 62 160 1.0 6.0 0.00 0.00 0.00 51 1012.7
20210615053015 62 196 1.0 10.0 0.00 0.00 0.00 51 1012.6
20210615051514 63 208 1.0 8.0 0.00 0.00 0.00 50 1012.5
20210615050031 63 162 4.0 12.0 0.00 0.00 0.00 52 1012.2
20210615044552 64 188 5.0 16.0 0.00 0.00 0.00 50 1012.1
20210615043055 65 147 6.0 13.0 0.00 0.00 0.00 47 1011.8
20210615041512 66 296 3.0 10.0 0.00 0.00 0.00 45 1011.9
20210615040016 67 296 3.0 11.0 0.00 0.00 0.00 42 1011.9
20210615034510 68 299 6.0 15.0 0.00 0.00 0.00 43 1011.8
20210615033007 69 246 4.0 13.0 0.00 0.00 0.00 36 1011.7
20210615031516 71 310 3.0 7.0 0.00 0.00 0.00 36 1011.6
20210615030022 72 260 2.0 8.0 0.00 0.00 0.00 34 1011.5
20210615024517 74 279 2.0 7.0 0.00 0.00 0.00 33 1011.4
20210615023021 75 268 3.0 7.0 0.00 0.00 0.00 29 1011.3
20210615021533 76 337 2.0 8.0 0.00 0.00 0.00 28 1011.2
20210615020010 77 287 3.0 8.0 0.00 0.00 0.00 26 1010.9
20210615014506 78 229 3.0 11.0 0.00 0.00 0.00 26 1010.8
20210615013025 79 204 4.0 11.0 0.00 0.00 0.00 28 1010.6
20210615011504 82 116 0.0 4.0 0.00 0.00 0.00 27 1010.6
20210615010004 83 200 0.0 5.0 0.00 0.00 0.00 28 1010.7
20210615004503 83 129 1.0 4.0 0.00 0.00 0.00 27 1010.7
20210615003008 84 120 0.0 3.0 0.00 0.00 0.00 26 1010.8
20210615000214 80 315 3.0 10.0 0.00 0.00 0.00 29 1010.8
20210614234656 81 268 4.0 10.0 0.00 0.00 0.00 30 1010.7
20210614233148 82 192 2.0 8.0 0.00 0.00 0.00 29 1010.8
20210614230157 82 165 3.0 10.0 0.00 0.00 0.00 25 1010.9
20210614224604 81 256 3.0 10.0 0.00 0.00 0.00 28 1011.2
20210614223153 81 215 2.0 11.0 0.00 0.00 0.00 28 1011.2
20210614220213 80 267 2.0 10.0 0.00 0.00 0.00 29 1011.2
20210614214711 80 179 2.0 6.0 0.00 0.00 0.00 30 1011.2
20210614213124 80 212 4.0 9.0 0.00 0.00 0.00 30 1011.4
20210614211534 80 141 3.0 11.0 0.00 0.00 0.00 33 1011.3
20210614210029 79 158 3.0 11.0 0.00 0.00 0.00 33 1011.4
20210614204551 79 140 3.0 8.0 0.00 0.00 0.00 33 1011.5
20210614203014 79 163 4.0 11.0 0.00 0.00 0.00 35 1011.5
20210614201520 78 224 5.0 13.0 0.00 0.00 0.00 34 1011.3
20210614200031 77 209 2.0 11.0 0.00 0.00 0.00 38 1011.3
20210614194556 76 194 2.0 9.0 0.00 0.00 0.00 42 1011.4
20210614193012 75 301 3.0 8.0 0.00 0.00 0.00 43 1011.6
20210614191528 74 190 2.0 12.0 0.00 0.00 0.00 46 1011.8
20210614190015 74 202 3.0 9.0 0.00 0.00 0.00 46 1011.8
20210614184502 73 215 3.0 16.0 0.00 0.00 0.00 49 1011.8
20210614183022 73 155 1.0 8.0 0.00 0.00 0.00 50 1011.8
20210614181519 72 130 2.0 8.0 0.00 0.00 0.00 53 1011.7
20210614180120 70 160 2.0 7.0 0.00 0.00 0.00 56 1011.7
20210614174604 70 165 2.0 8.0 0.00 0.00 0.00 57 1011.8
20210614173105 70 152 1.0 6.0 0.00 0.00 0.00 60 1011.7
20210614171600 69 161 0.0 6.0 0.00 0.00 0.00 59 1011.8
20210614170105 68 190 2.0 9.0 0.00 0.00 0.00 63 1011.8
20210614164623 67 192 1.0 6.0 0.00 0.00 0.00 56 1011.9
20210614163104 73 124 0.0 3.0 0.00 0.00 0.00 57 1012.0
20210614161543 72 100 0.0 4.0 0.00 0.00 0.00 59 1012.1
20210614160054 71 101 0.0 4.0 0.00 0.00 0.00 62 1012.1
20210614154614 69 202 0.0 3.0 0.00 0.00 0.00 65 1012.1
20210614153133 71 170 0.0 7.0 0.00 0.00 0.00 63 1012.2
20210614151721 71 192 0.0 2.0 0.00 0.00 0.00 65 1012.1
20210614150119 67 196 0.0 4.0 0.00 0.00 0.00 75 1012.0
20210614144549 64 154 0.0 2.0 0.00 0.00 0.00 82 1011.9
20210614143017 63 202 0.0 3.0 0.00 0.00 0.00 86 1011.9
20210614141612 61 245 0.0 2.0 0.00 0.00 0.00 88 1011.8
20210614140113 59 217 0.0 1.0 0.00 0.00 0.00 90 1011.8
20210614134726 59 217 0.0 1.0 0.00 0.00 0.00 91 1011.7
20210614131532 58 217 0.0 1.0 0.00 0.00 0.00 92 1011.5
20210614130013 57 217 0.0 1.0 0.00 0.00 0.00 93 1011.4
20210614124514 57 221 0.0 0.0 0.00 0.00 0.00 92 1011.1
20210614121505 58 221 0.0 1.0 0.00 0.00 0.00 93 1010.9
20210614120012 58 225 0.0 1.0 0.00 0.00 0.00 92 1010.9
20210614114501 59 233 0.0 1.0 0.00 0.00 0.00 92 1010.7
20210614111501 61 165 0.0 1.0 0.00 0.00 0.00 82 1010.6
20210614110121 62 165 0.0 0.0 0.00 0.00 0.00 82 1010.5
20210614104700 62 165 0.0 2.0 0.00 0.00 0.00 81 1010.5
20210614101632 62 260 0.0 1.0 0.00 0.00 0.00 81 1010.5
20210614100150 62 260 0.0 2.0 0.00 0.00 0.00 81 1010.4
20210614094635 62 260 0.0 2.0 0.00 0.00 0.00 81 1010.3
20210614091617 62 171 0.0 0.0 0.00 0.00 0.00 82 1010.4
20210614090220 62 171 0.0 3.0 0.00 0.00 0.00 82 1010.4
20210614084643 62 169 0.0 3.0 0.00 0.00 0.00 82 1010.3
20210614081623 62 236 1.0 4.0 0.00 0.00 0.00 82 1010.3
20210614080148 63 173 0.0 3.0 0.00 0.00 0.00 80 1010.4
20210614074633 63 205 0.0 3.0 0.00 0.00 0.00 79 1010.4